• Join FlightAware (Why Join?)
  • Login
  • US Flag 
11:30AM EDT


 

Airport Tracker/Info


-or-


 

Live Flight TrackerFlight Track Log ✈ N143DE ✈ 28-Jun-2013 ✈ KEGV - KRYY

Flight Track Log - Related Links

Times and Time Zones

All times are in EDT time to prevent confusion due to time zone crossing. See the N143DE flight status page for this flight to view local times or setup timezone preferences in your user account.

Time Position Orientation Groundspeed Altitude Reporting Facility
EDT Latitude Longitude Course Direction KTS MPH feet Rate Location/Type
06:55PM 45.8564 -89.1750 152° Southeast 191 220 6,400  Level Minneapolis Center
06:56PM 45.8086 -89.1522 162° South 183 211 8,200 1,620 Climbing Minneapolis Center
06:57PM 45.7578 -89.1233 158° South 196 226 9,800 1,500 Climbing Minneapolis Center
06:59PM 45.7053 -89.0897 156° South 205 236 11,400 1,500 Climbing Minneapolis Center
07:00PM 45.6564 -89.0481 149° Southeast 208 239 12,900 1,680 Climbing Minneapolis Center
07:01PM 45.3479 -88.9940 152° Southeast  Level Estimated
07:01PM 45.6003 -89.0003 149° Southeast 193 222 14,900  Level Minneapolis Center
07:02PM 45.5519 -88.9619 151° Southeast 198 228 16,300 1,320 Climbing Minneapolis Center
07:03PM 45.5044 -88.9253 152° Southeast 195 224 17,700 1,320 Climbing Minneapolis Center
07:04PM 45.4550 -88.8878 152° Southeast 200 230 19,100 1,080 Climbing Minneapolis Center
07:05PM 45.4039 -88.8489 152° Southeast 206 237 20,200 960 Climbing Minneapolis Center
07:06PM 45.3528 -88.8086 151° Southeast 211 243 21,300 1,260 Climbing Minneapolis Center
07:07PM 45.2833 -88.7522 150° Southeast 204 235 22,900 1,080 Climbing Minneapolis Center
07:08PM 45.2428 -88.7219 152° Southeast 205 236 23,600 900 Climbing Minneapolis Center
07:09PM 45.1811 -88.6761 152° Southeast 207 238 24,800 900 Climbing Minneapolis Center
07:10PM 45.1297 -88.6378 152° Southeast 209 241 25,500 660 Climbing Minneapolis Center
07:11PM 45.0747 -88.5944 151° Southeast 219 252 26,200 600 Climbing Minneapolis Center
07:12PM 45.0200 -88.5511 151° Southeast 221 254 26,800 420 Climbing Minneapolis Center
07:13PM 44.9522 -88.5003 152° Southeast 235 270 27,100 60 Climbing Minneapolis Center
07:14PM 44.8861 -88.4511 152° Southeast 264 304 27,000 -60 Descending Minneapolis Center
07:15PM 44.8181 -88.3981 151° Southeast 278 320 27,000  Level Minneapolis Center
07:16PM 44.7600 -88.3531 151° Southeast 283 326 27,000  Level Minneapolis Center
07:17PM 44.6781 -88.2922 152° Southeast 284 327 27,000  Level Minneapolis Center
07:18PM 44.6069 -88.2375 151° Southeast 288 331 27,000  Level Minneapolis Center
07:19PM 44.5214 -88.1869 157° South 287 330 27,000  Level Minneapolis Center
07:20PM 44.4436 -88.1761 174° South 281 323 27,000  Level Minneapolis Center
07:21PM 44.3664 -88.1547 169° South 281 323 27,000  Level Minneapolis Center
07:23PM 44.2906 -88.1292 166° South 280 322 27,000  Level Minneapolis Center
07:24PM 44.2153 -88.1047 167° South 278 320 27,000  Level Minneapolis Center
07:25PM 44.1269 -88.0792 168° South 277 319 27,000  Level Minneapolis Center
07:26PM 44.0506 -88.0575 168° South 278 320 27,000  Level Minneapolis Center
07:27PM 43.9750 -88.0331 167° South 277 319 27,000  Level Minneapolis Center
07:28PM 43.9000 -88.0100 168° South 276 318 27,000  Level Minneapolis Center
07:29PM 43.8142 -87.9864 169° South 273 314 27,000  Level Chicago Center
07:30PM 43.7394 -87.9639 168° South 273 314 27,000  Level Chicago Center
07:31PM 43.6669 -87.9261 159° South 274 315 27,000  Level Chicago Center
07:32PM 43.5942 -87.8881 159° South 277 319 27,000  Level Chicago Center
07:33PM 43.5267 -87.8419 154° Southeast 273 314 27,000  Level Chicago Center
07:34PM 43.4644 -87.7819 145° Southeast 272 313 27,000  Level Chicago Center
07:35PM 43.4039 -87.7206 144° Southeast 270 311 27,000  Level Chicago Center
07:36PM 43.3283 -87.6567 148° Southeast 271 312 27,000  Level Chicago Center
07:37PM 43.2603 -87.6117 154° Southeast 271 312 27,000  Level Chicago Center
07:38PM 43.1925 -87.5622 152° Southeast 273 314 27,000  Level Chicago Center
07:39PM 43.1239 -87.5144 153° Southeast 276 318 27,000  Level Chicago Center
07:40PM 43.0542 -87.4675 154° Southeast 277 319 27,000  Level Chicago Center
07:41PM 42.9778 -87.4511 171° South 272 313 27,000  Level Chicago Center
07:42PM 42.8883 -87.4392 174° South 275 316 27,000  Level Chicago Center
07:43PM 42.8122 -87.4261 173° South 275 316 27,000  Level Chicago Center
07:44PM 42.7378 -87.4119 172° South 271 312 27,000  Level Chicago Center
07:45PM 42.6628 -87.3983 172° South 271 312 27,000  Level Chicago Center
07:46PM 42.5850 -87.3875 174° South 273 314 27,000  Level Chicago Center
07:47PM 42.5100 -87.3756 173° South 272 313 27,000  Level Chicago Center
07:48PM 42.4353 -87.3636 173° South 271 312 27,000  Level Chicago Center
07:49PM 42.3600 -87.3506 173° South 274 315 27,000  Level Chicago Center
07:50PM 42.2697 -87.3367 174° South 273 314 27,000  Level Chicago Center
07:51PM 42.1950 -87.3250 173° South 272 313 27,000  Level Chicago Center
07:52PM 42.1200 -87.3133 173° South 273 314 27,000  Level Chicago Center
07:54PM 42.0456 -87.3014 173° South 272 313 27,100  Climbing Chicago Center
07:55PM 41.9706 -87.2903 174° South 272 313 27,100 -60 Level Chicago Center
07:56PM 41.8947 -87.2797 174° South 273 314 27,000  Descending Chicago Center
07:57PM 41.8050 -87.2653 173° South 273 314 27,100  Climbing Chicago Center
07:58PM 41.7286 -87.2528 173° South 275 316 27,100  Level Chicago Center
07:59PM 41.6525 -87.2397 173° South 277 319 27,100  Level Chicago Center
08:00PM 41.5781 -87.2303 175° South 272 313 27,100 -60 Level Chicago Center
08:01PM 41.5025 -87.2181 173° South 273 314 27,000 -60 Descending Chicago Center
08:02PM 41.4269 -87.2058 173° South 274 315 27,000  Level Chicago Center
08:03PM 41.3367 -87.1917 173° South 273 314 27,000  Level Chicago Center
08:04PM 41.2606 -87.1797 173° South 275 316 27,000  Level Chicago Center
08:05PM 41.1831 -87.1667 173° South 279 321 27,000  Level Chicago Center
08:06PM 41.1089 -87.1558 174° South 272 313 27,000  Level Chicago Center
08:07PM 41.0342 -87.1456 174° South 271 312 27,000  Level Chicago Center
08:08PM 40.9594 -87.1322 172° South 270 311 27,000  Level Chicago Center
08:09PM 40.8714 -87.1178 173° South 268 308 27,000  Level Chicago Center
08:10PM 40.7978 -87.1081 174° South 266 306 27,000  Level Chicago Center
08:11PM 40.7247 -87.0958 173° South 266 306 27,000  Level Chicago Center
08:12PM 40.6478 -87.0853 174° South 265 305 27,000  Level Chicago Center
08:13PM 40.5750 -87.0747 174° South 264 304 27,000  Level Chicago Center
08:14PM 40.5050 -87.0731 179° South 261 300 27,000  Level Chicago Center
08:15PM 40.4358 -87.0325 156° South 271 312 27,000  Level Chicago Center
08:16PM 40.3678 -86.9864 153° Southeast 274 315 27,000  Level Chicago Center
08:17PM 40.2864 -86.9328 153° Southeast 273 314 27,000  Level Chicago Center
08:18PM 40.2164 -86.8900 155° Southeast 277 319 27,000  Level Chicago Center
08:19PM 40.1469 -86.8444 153° Southeast 278 320 27,000  Level Chicago Center
08:20PM 40.0761 -86.8003 154° Southeast 279 321 27,000  Level Chicago Center
08:21PM 40.0047 -86.7553 154° Southeast 284 327 27,000  Level Chicago Center
08:22PM 39.9189 -86.7047 156° South 282 325 27,000  Level Chicago Center
08:23PM 39.8489 -86.6589 153° Southeast 282 325 27,000  Level Chicago Center
08:24PM 39.7781 -86.6144 154° Southeast 284 327 27,000  Level Chicago Center
08:26PM 39.7019 -86.5931 168° South 280 322 27,100  Climbing Chicago Center
08:27PM 39.6261 -86.5692 166° South 282 325 27,100  Level Chicago Center
08:28PM 39.5339 -86.5422 167° South 285 328 27,100  Level Chicago Center
08:29PM 39.4572 -86.5164 165° South 286 329 27,100  Level Chicago Center
08:30PM 39.3797 -86.4908 166° South 288 331 27,100  Level Chicago Center
08:31PM 39.3014 -86.4672 167° South 289 333 27,100  Level Chicago Center
08:32PM 39.1917 -86.4300 165° South 288 331 27,100  Level Indianapolis Center
08:33PM 39.0978 -86.3994 166° South 291 335 27,100  Level Indianapolis Center
08:34PM 39.0214 -86.3744 166° South 286 329 27,100  Level Indianapolis Center
08:35PM 38.9425 -86.3478 165° South 291 335 27,100  Level Indianapolis Center
08:36PM 38.8556 -86.3214 167° South 292 336 27,100  Level Indianapolis Center
08:37PM 38.7775 -86.2981 167° South 288 331 27,100  Level Indianapolis Center
08:38PM 38.6981 -86.2731 166° South 291 335 27,100  Level Indianapolis Center
08:39PM 38.6197 -86.2483 166° South 289 333 27,100  Level Indianapolis Center
08:40PM 38.5397 -86.2247 167° South 292 336 27,100  Level Indianapolis Center
08:41PM 38.4614 -86.2003 166° South 289 333 27,100  Level Indianapolis Center
08:42PM 38.3797 -86.1750 166° South 297 342 27,100  Level Indianapolis Center
08:43PM 38.2961 -86.1503 167° South 305 351 27,100  Level Indianapolis Center
08:44PM 38.2133 -86.1244 166° South 304 350 27,100  Level Indianapolis Center
08:45PM 38.1303 -86.0989 166° South 304 350 27,100  Level Indianapolis Center
08:47PM 38.0308 -86.0672 166° South 306 352 27,100  Level Indianapolis Center
08:48PM 37.9467 -86.0431 167° South 308 354 27,100  Level Indianapolis Center
08:49PM 37.8633 -86.0164 166° South 308 354 27,100  Level Indianapolis Center
08:50PM 37.7803 -85.9886 165° South 308 354 27,100  Level Indianapolis Center
08:51PM 37.6989 -85.9625 166° South 300 345 27,100  Level Indianapolis Center
08:52PM 37.6167 -85.9381 167° South 302 348 27,100 -60 Level Indianapolis Center
08:53PM 37.5258 -85.9133 168° South 301 346 27,000 -60 Descending Indianapolis Center
08:54PM 37.4428 -85.8883 167° South 302 348 27,000  Level Indianapolis Center
08:55PM 37.3600 -85.8628 166° South 302 348 27,000  Level Indianapolis Center
08:56PM 37.2778 -85.8381 167° South 302 348 27,000  Level Indianapolis Center
08:57PM 37.1953 -85.8125 166° South 303 349 27,000  Level Indianapolis Center
08:58PM 37.1142 -85.7886 167° South 298 343 27,000  Level Indianapolis Center
08:59PM 37.0331 -85.7631 166° South 298 343 27,000  Level Indianapolis Center
09:00PM 36.9525 -85.7397 167° South 295 339 27,000  Level Indianapolis Center
09:01PM 36.8717 -85.7147 166° South 295 339 27,000  Level Indianapolis Center
09:02PM 36.7911 -85.6894 166° South 294 338 27,000  Level Indianapolis Center
09:03PM 36.6972 -85.6600 166° South 293 337 27,000  Level Indianapolis Center
09:04PM 36.6194 -85.6372 167° South 288 331 27,000  Level Indianapolis Center
09:05PM 36.5425 -85.6144 167° South 284 327 27,000  Level Indianapolis Center
09:06PM 36.4650 -85.5917 167° South 286 329 27,000  Level Indianapolis Center
09:07PM 36.3886 -85.5697 167° South 283 326 27,000  Level Indianapolis Center
09:08PM 36.3125 -85.5467 166° South 282 325 27,000  Level Indianapolis Center
09:10PM 36.1719 -85.5053 167° South 285 328 27,000  Level Memphis Center
09:11PM 36.1042 -85.4856 167° South 286 329 27,000  Level Atlanta Center
09:12PM 36.0375 -85.4689 169° South 270 311 27,000  Level Atlanta Center
09:13PM 35.9606 -85.4444 166° South 270 311 27,000 -180 Level Atlanta Center
09:14PM 35.8836 -85.4228 167° South 281 323 26,700 -480 Descending Atlanta Center
09:15PM 35.8047 -85.3983 166° South 286 329 26,100 -600 Descending Atlanta Center
09:16PM 35.7236 -85.3739 166° South 291 335 25,600 -480 Descending Atlanta Center
09:17PM 35.6444 -85.3522 167° South 296 341 25,200 -600 Descending Atlanta Center
09:18PM 35.5633 -85.3281 166° South 296 341 24,500 -600 Descending Atlanta Center
09:19PM 35.4822 -85.3039 166° South 296 341 24,000 -300 Descending Atlanta Center
09:20PM 35.4033 -85.2822 167° South 296 341 24,000  Level Atlanta Center
09:21PM 35.3283 -85.2606 167° South 296 341 24,000  Level Atlanta Center
09:22PM 35.2514 -85.2392 167° South 291 335 24,000 -540 Level Atlanta Center
09:23PM 35.1703 -85.2178 168° South 291 335 23,000 -1,200 Descending Atlanta Center
09:24PM 35.0869 -85.1936 167° South 304 350 21,700 -1,320 Descending Atlanta Center
09:25PM 35.0036 -85.1672 165° South 310 357 20,400 -1,320 Descending Atlanta Center
09:26PM 34.9183 -85.1483 170° South 310 357 19,100 -1,500 Descending Atlanta Center
09:27PM 34.8369 -85.1497 181° South 310 357 17,400 -1,620 Descending Atlanta Center
09:28PM 34.7556 -85.1461 178° South 305 351 15,900 -1,260 Descending Atlanta Center
09:29PM 34.6786 -85.1222 166° South 300 345 14,900 -600 Descending Atlanta Center
09:30PM 34.6206 -85.0914 156° South 258 297 14,800 -480 Descending Atlanta Center
09:31PM 34.5581 -85.0628 159° South 242 278 14,000 -1,020 Descending Atlanta Center
09:32PM 34.4936 -85.0242 154° Southeast 242 278 12,800 -1,260 Descending Atlanta Center
09:33PM 34.4272 -84.9908 158° South 247 284 11,500 -1,320 Descending Atlanta Center
09:34PM 34.3689 -84.9572 155° Southeast 247 284 10,200 -1,380 Descending Atlanta Center
09:35PM 34.3086 -84.9239 155° Southeast 242 278 8,800 -1,200 Descending Atlanta Center
09:36PM 34.2525 -84.8933 156° South 236 272 7,900 -420 Descending Atlanta Center
09:37PM 34.2006 -84.8650 156° South 216 249 8,000 -480 Climbing Atlanta Center
09:38PM 34.1633 -84.8119 130° Southeast 205 236 7,000 -1,440 Descending Atlanta Center
09:39PM 34.1261 -84.7539 128° Southeast 211 243 5,200 -1,800 Descending Atlanta Center
09:40PM 34.0889 -84.6961 128° Southeast 222 255 3,500 -1,380 Descending Atlanta Center
09:41PM 34.0517 -84.6406 129° Southeast 222 255 2,500 -480 Descending Atlanta Center
09:42PM 34.0372 -84.5953 111° Southeast 189 217 2,600 -240 Climbing Atlanta Center
09:43PM 34.0250 -84.5500 108° East 163 188 2,100 -600 Descending Atlanta Center
09:44PM 34.0039 -84.5575 196° South 80 92 1,400 -720 Descending Atlanta Center
09:46PM 34.0132 -84.5971 164° South  Level Estimated
09:53PM 34.0132 -84.5971 348° North  Level Estimated